createdAt,value
2019-04-01T00:03:29.379Z,24.00
2019-04-01T00:08:37.583Z,22.95
2019-04-01T00:13:43.040Z,23.03
2019-04-01T00:19:02.105Z,23.23
2019-04-01T00:23:53.967Z,22.87
2019-04-01T00:28:58.815Z,24.07
2019-04-01T00:34:03.791Z,23.90
2019-04-01T00:39:09.177Z,24.37
2019-04-01T00:44:14.004Z,25.90
2019-04-01T00:49:19.562Z,24.33
2019-04-01T00:54:24.294Z,24.87
2019-04-01T00:59:29.490Z,24.07
2019-04-01T01:04:34.307Z,25.30
2019-04-01T01:09:39.431Z,25.83
2019-04-01T01:14:44.025Z,24.17
2019-04-01T01:19:48.673Z,23.92
2019-04-01T01:24:53.178Z,24.43
2019-04-01T01:29:57.782Z,24.57
2019-04-01T01:35:02.359Z,24.67
2019-04-01T01:40:07.521Z,25.33
2019-04-01T01:45:11.845Z,25.30
2019-04-01T01:50:17.985Z,23.23
2019-04-01T01:55:22.418Z,24.07
2019-04-01T02:00:28.357Z,23.00
2019-04-01T02:05:33.217Z,22.33
2019-04-01T02:10:37.652Z,23.73
2019-04-01T02:15:42.208Z,25.47
2019-04-01T02:20:47.168Z,26.33
2019-04-01T02:25:52.014Z,27.00
2019-04-01T02:30:56.783Z,25.93
2019-04-01T02:36:02.404Z,26.63
2019-04-01T02:41:09.973Z,27.63
2019-04-01T02:46:20.087Z,24.43
2019-04-01T02:51:24.795Z,24.70
2019-04-01T02:56:29.309Z,26.73
2019-04-01T03:01:33.802Z,28.63
2019-04-01T03:06:38.138Z,26.73
2019-04-01T03:11:42.705Z,22.87
2019-04-01T03:16:47.441Z,23.83
2019-04-01T03:21:51.911Z,22.20
2019-04-01T03:26:56.648Z,21.85
2019-04-01T03:32:01.812Z,22.77
2019-04-01T03:37:06.827Z,20.97
2019-04-01T03:42:11.317Z,19.47
2019-04-01T03:47:16.353Z,21.47
2019-04-01T03:52:22.994Z,21.53
2019-04-01T03:57:28.004Z,21.48
2019-04-01T04:02:32.477Z,22.40
2019-04-01T04:07:39.576Z,23.43
2019-04-01T04:12:44.379Z,23.97
2019-04-01T04:17:48.921Z,23.20
2019-04-01T04:22:53.848Z,25.10
2019-04-01T04:27:58.443Z,24.57
2019-04-01T04:33:03.504Z,27.60
2019-04-01T04:38:08.205Z,26.03
2019-04-01T04:43:14.130Z,29.40
2019-04-01T04:48:19.621Z,29.83
2019-04-01T04:53:25.252Z,33.33
2019-04-01T04:58:30.118Z,31.00
2019-04-01T05:03:35.424Z,30.33
2019-04-01T05:08:40.581Z,31.47
2019-04-01T05:13:47.734Z,31.23
2019-04-01T05:18:52.927Z,30.90
2019-04-01T05:23:58.217Z,29.83
2019-04-01T05:29:04.776Z,28.83
2019-04-01T05:34:11.189Z,28.37
2019-04-01T05:39:16.662Z,27.50
2019-04-01T05:44:21.863Z,27.37
2019-04-01T05:49:26.987Z,26.50
2019-04-01T05:54:31.799Z,24.23
2019-04-01T05:59:36.133Z,23.87
2019-04-01T06:04:41.414Z,26.57
2019-04-01T06:09:46.042Z,26.73
2019-04-01T06:14:50.460Z,26.57
2019-04-01T06:19:55.356Z,26.70
2019-04-01T06:25:01.305Z,23.93
2019-04-01T06:30:06.816Z,24.53
2019-04-01T06:35:12.974Z,27.27
2019-04-01T06:40:18.085Z,24.37
2019-04-01T06:45:24.633Z,22.77
2019-04-01T06:50:29.431Z,23.20
2019-04-01T06:55:34.326Z,19.07
2019-04-01T07:00:40.327Z,21.10
2019-04-01T07:05:44.829Z,21.10
2019-04-01T07:10:49.469Z,20.95
2019-04-01T07:15:54.114Z,21.37
2019-04-01T07:20:59.004Z,21.52
2019-04-01T07:26:13.201Z,19.48
2019-04-01T07:31:18.664Z,20.20
2019-04-01T07:36:23.267Z,19.70
2019-04-01T07:41:27.822Z,21.87
2019-04-01T07:46:32.758Z,21.13
2019-04-01T07:51:39.944Z,21.02
2019-04-01T07:56:44.635Z,20.45
2019-04-01T08:01:52.660Z,21.10
2019-04-01T08:06:57.070Z,20.37
2019-04-01T08:12:02.259Z,21.05
2019-04-01T08:17:07.657Z,19.73
2019-04-01T08:22:14.806Z,21.70
2019-04-01T08:27:20.165Z,20.92
2019-04-01T08:32:26.898Z,20.72
2019-04-01T08:37:35.160Z,21.82
2019-04-01T08:42:40.135Z,21.75
2019-04-01T08:47:46.321Z,20.35
2019-04-01T08:52:51.654Z,20.02
2019-04-01T08:57:57.342Z,20.82
2019-04-01T09:03:02.122Z,19.87
2019-04-01T09:08:08.391Z,20.45
2019-04-01T09:13:14.185Z,20.90
2019-04-01T09:18:20.822Z,19.67
2019-04-01T09:23:25.298Z,19.57
2019-04-01T09:28:31.411Z,18.65
2019-04-01T09:33:43.431Z,18.82
2019-04-01T09:38:47.643Z,19.05
2019-04-01T09:43:52.332Z,18.83
2019-04-01T09:49:06.256Z,18.95
2019-04-01T09:54:11.257Z,18.00
2019-04-01T09:59:16.425Z,20.60
2019-04-01T10:04:21.305Z,19.62
2019-04-01T10:09:27.449Z,19.57
2019-04-01T10:14:32.564Z,20.47
2019-04-01T10:19:44.386Z,21.42
2019-04-01T10:24:50.922Z,20.56
2019-04-01T10:29:55.842Z,21.27
2019-04-01T10:35:00.858Z,21.12
2019-04-01T10:40:08.631Z,20.48
2019-04-01T10:45:14.098Z,21.10
2019-04-01T10:50:18.770Z,20.08
2019-04-01T10:55:23.950Z,21.95
2019-04-01T11:00:29.914Z,21.60
2019-04-01T11:05:43.437Z,19.55
2019-04-01T11:10:48.213Z,20.27
2019-04-01T11:15:52.835Z,20.05
2019-04-01T11:21:01.444Z,21.60
2019-04-01T11:26:06.556Z,19.23
2019-04-01T11:31:23.011Z,19.95
2019-04-01T11:36:30.759Z,18.23
2019-04-01T11:41:35.967Z,17.90
2019-04-01T11:46:45.284Z,17.98
2019-04-01T11:51:54.187Z,18.57
2019-04-01T11:57:02.864Z,18.95
2019-04-01T12:02:12.323Z,16.90
2019-04-01T12:07:26.699Z,16.97
2019-04-01T12:12:42.623Z,17.67
2019-04-01T12:17:49.825Z,16.55
2019-04-01T12:22:57.227Z,16.82
2019-04-01T12:28:08.338Z,16.67
2019-04-01T12:33:25.845Z,16.80
2019-04-01T12:38:39.308Z,14.73
2019-04-01T12:43:44.530Z,15.95
2019-04-01T12:49:19.906Z,16.80
2019-04-01T12:54:56.654Z,16.20
2019-04-01T13:00:02.055Z,15.55
2019-04-01T13:05:15.034Z,17.10
2019-04-01T13:10:20.380Z,14.93
2019-04-01T13:15:30.238Z,14.98
2019-04-01T13:20:38.369Z,16.60
2019-04-01T13:25:49.000Z,15.30
2019-04-01T13:31:04.023Z,15.43
2019-04-01T13:36:21.168Z,16.10
2019-04-01T13:41:41.531Z,15.80
2019-04-01T13:46:37.346Z,16.85
2019-04-01T13:51:45.329Z,13.83
2019-04-01T13:56:50.875Z,13.25
2019-04-01T14:02:05.924Z,13.15
2019-04-01T14:07:21.342Z,12.50
2019-04-01T14:12:28.266Z,11.50
2019-04-01T14:17:45.003Z,10.68
2019-04-01T14:23:03.210Z,9.45
2019-04-01T14:28:10.052Z,10.20
2019-04-01T14:33:27.361Z,9.75
2019-04-01T14:38:33.557Z,10.60
2019-04-01T14:43:40.319Z,11.12
2019-04-01T14:48:44.910Z,11.12
2019-04-01T14:53:49.544Z,10.98
2019-04-01T14:58:54.576Z,11.33
2019-04-01T15:04:02.486Z,11.78
2019-04-01T15:09:11.218Z,11.63
2019-04-01T15:14:16.490Z,13.68
2019-04-01T15:19:22.132Z,13.72
2019-04-01T15:24:27.188Z,13.87
2019-04-01T15:29:32.567Z,13.65
2019-04-01T15:34:37.922Z,13.33
2019-04-01T15:39:43.144Z,14.10
2019-04-01T15:44:48.073Z,14.00
2019-04-01T15:49:53.188Z,14.28
2019-04-01T15:54:59.414Z,13.70
2019-04-01T16:00:05.278Z,12.47
2019-04-01T16:05:13.783Z,13.33
2019-04-01T16:10:18.396Z,13.80
2019-04-01T16:15:25.930Z,14.10
2019-04-01T16:20:34.037Z,14.35
2019-04-01T16:25:38.957Z,14.00
2019-04-01T16:30:44.809Z,13.32
2019-04-01T16:35:49.622Z,13.23
2019-04-01T16:41:05.730Z,13.00
2019-04-01T16:46:12.652Z,13.53
2019-04-01T16:51:18.817Z,14.13
2019-04-01T16:56:24.130Z,14.93
2019-04-01T17:01:28.914Z,14.03
2019-04-01T17:06:39.023Z,14.93
2019-04-01T17:11:46.744Z,15.13
2019-04-01T17:16:52.669Z,15.37
2019-04-01T17:21:57.558Z,14.97
2019-04-01T17:27:14.126Z,14.77
2019-04-01T17:32:18.969Z,16.30
2019-04-01T17:37:26.475Z,15.18
2019-04-01T17:42:31.676Z,15.23
2019-04-01T17:47:39.407Z,17.13
2019-04-01T17:52:45.351Z,16.47
2019-04-01T17:57:53.301Z,14.73
2019-04-01T18:02:58.098Z,14.97
2019-04-01T18:08:03.023Z,17.30
2019-04-01T18:13:08.210Z,16.70
2019-04-01T18:18:26.176Z,16.90
2019-04-01T18:23:21.898Z,16.90
2019-04-01T18:28:27.752Z,16.13
2019-04-01T18:33:40.173Z,15.63
2019-04-01T18:38:46.200Z,16.30
2019-04-01T18:43:51.211Z,16.50
2019-04-01T18:49:01.243Z,18.10
2019-04-01T18:54:08.182Z,16.70
2019-04-01T18:59:13.228Z,16.13
2019-04-01T19:04:24.329Z,17.20
2019-04-01T19:09:28.901Z,17.17
2019-04-01T19:14:34.383Z,18.50
2019-04-01T19:19:40.440Z,18.03
2019-04-01T19:24:53.023Z,18.93
2019-04-01T19:30:02.085Z,18.87
2019-04-01T19:35:15.447Z,19.07
2019-04-01T19:40:20.941Z,18.10
2019-04-01T19:45:27.053Z,19.17
2019-04-01T19:50:31.860Z,18.17
2019-04-01T19:55:37.067Z,27.80
2019-04-01T20:00:42.981Z,22.53
2019-04-01T20:05:49.187Z,21.80
2019-04-01T20:10:54.530Z,21.17
2019-04-01T20:15:59.712Z,20.40
2019-04-01T20:21:04.461Z,19.80
2019-04-01T20:26:13.022Z,19.27
2019-04-01T20:31:17.912Z,19.60
2019-04-01T20:36:28.671Z,20.37
2019-04-01T20:41:29.985Z,20.50
2019-04-01T20:46:34.625Z,20.97
2019-04-01T20:51:40.888Z,22.67
2019-04-01T20:56:49.095Z,22.17
2019-04-01T21:01:54.070Z,20.73
2019-04-01T21:06:58.873Z,20.93
2019-04-01T21:12:04.599Z,20.40
2019-04-01T21:17:09.471Z,22.30
2019-04-01T21:22:14.363Z,20.83
2019-04-01T21:27:19.639Z,21.57
2019-04-01T21:32:24.492Z,21.97
2019-04-01T21:37:28.934Z,20.97
2019-04-01T21:42:36.224Z,21.53
2019-04-01T21:47:41.206Z,21.60
2019-04-01T21:52:46.737Z,22.10
2019-04-01T21:57:52.357Z,22.07
2019-04-01T22:02:56.849Z,20.20
2019-04-01T22:08:01.914Z,21.77
2019-04-01T22:13:06.465Z,21.43
2019-04-01T22:18:14.351Z,21.87
2019-04-01T22:23:19.457Z,21.83
2019-04-01T22:28:34.334Z,21.73
2019-04-01T22:33:39.220Z,21.93
2019-04-01T22:38:47.948Z,22.97
2019-04-01T22:43:54.293Z,23.27
2019-04-01T22:48:59.226Z,21.27
2019-04-01T22:54:04.083Z,23.00
2019-04-01T22:59:08.673Z,24.07
2019-04-01T23:04:13.174Z,21.47
2019-04-01T23:09:18.251Z,24.63
2019-04-01T23:14:23.280Z,22.23
2019-04-01T23:19:31.183Z,23.00
2019-04-01T23:24:36.612Z,22.47
2019-04-01T23:29:41.409Z,23.23
2019-04-01T23:34:46.354Z,23.17
2019-04-01T23:39:51.099Z,21.17
2019-04-01T23:44:59.907Z,20.43
2019-04-01T23:50:09.093Z,20.33
2019-04-01T23:55:14.475Z,21.37
